Weather at Sultan Ahmad Haji Shah Hospital Helipad

Public forecast

Using degrees Celsius for public forecast. Weather courtesy of forecast.io.

Closest aviation weather report (METAR) to Sultan Ahmad Haji Shah Hospital Helipad

Closest report is Kuantan Airport, 49.2 nm (91.2 km) ENE.

2024/05/30 04:00 (retrieved 41 minutes ago)

WMKD 300400Z 20015KT 9999 FEW019 32/26 Q1009 NOSIG

Closest aviation forecast (TAF) to Sultan Ahmad Haji Shah Hospital Helipad

Forecast is more than 12 hours old.

Closest forecast is Aden Adde International Airport, 3,428.0 nm (6,348.6 km) W.

2024/05/29 06:54 (retrieved 22 hours ago)

TAF HCMM 290500Z 2906/3012 21020KT 9999 FEW024 BECMG 2918/2921 21015KT SCT020 BECMG 3007/3009 22018KT FEW025